createdAt,value
2023-04-10T00:01:09.472Z,19.23
2023-04-10T00:03:37.231Z,19.77
2023-04-10T00:06:04.619Z,18.40
2023-04-10T00:08:31.660Z,18.87
2023-04-10T00:10:58.670Z,17.43
2023-04-10T00:13:25.670Z,18.00
2023-04-10T00:15:52.740Z,20.27
2023-04-10T00:18:19.679Z,17.10
2023-04-10T00:20:46.745Z,16.87
2023-04-10T00:23:13.684Z,15.67
2023-04-10T00:25:40.811Z,15.93
2023-04-10T00:28:07.783Z,14.40
2023-04-10T00:30:34.779Z,13.80
2023-04-10T00:33:01.816Z,14.20
2023-04-10T00:35:28.880Z,13.47
2023-04-10T00:37:57.021Z,13.23
2023-04-10T00:40:24.045Z,15.50
2023-04-10T00:42:51.247Z,15.90
2023-04-10T00:45:18.251Z,15.53
2023-04-10T00:47:45.392Z,13.97
2023-04-10T00:50:12.596Z,13.77
2023-04-10T00:52:39.820Z,14.40
2023-04-10T00:55:07.668Z,14.93
2023-04-10T00:57:34.919Z,15.77
2023-04-10T01:00:02.491Z,15.00
2023-04-10T01:02:29.662Z,14.70
2023-04-10T01:04:57.022Z,13.77
2023-04-10T01:07:49.840Z,15.03
2023-04-10T01:10:35.106Z,14.60
2023-04-10T01:13:26.128Z,15.60
2023-04-10T01:16:13.830Z,15.17
2023-04-10T01:18:46.524Z,14.70
2023-04-10T01:21:16.421Z,15.87
2023-04-10T01:23:43.381Z,15.23
2023-04-10T01:26:17.584Z,15.20
2023-04-10T01:29:05.141Z,14.13
2023-04-10T01:32:00.588Z,15.13
2023-04-10T01:34:36.194Z,14.57
2023-04-10T01:37:08.538Z,13.70
2023-04-10T01:39:41.108Z,13.80
2023-04-10T01:42:10.964Z,14.83
2023-04-10T01:44:42.622Z,14.30
2023-04-10T01:47:09.660Z,14.20
2023-04-10T01:49:42.685Z,16.47
2023-04-10T01:52:11.463Z,15.13
2023-04-10T01:54:39.320Z,14.20
2023-04-10T01:57:06.673Z,15.20
2023-04-10T01:59:33.647Z,14.53
2023-04-10T02:02:01.859Z,13.57
2023-04-10T02:04:29.113Z,16.27
2023-04-10T02:07:09.061Z,16.90
2023-04-10T02:10:02.975Z,24.37
2023-04-10T02:12:46.777Z,19.47
2023-04-10T02:15:16.941Z,20.97
2023-04-10T02:17:45.109Z,19.20
2023-04-10T02:20:12.867Z,18.23
2023-04-10T02:22:44.093Z,16.23
2023-04-10T02:25:12.053Z,16.40
2023-04-10T02:27:40.482Z,17.40
2023-04-10T02:30:08.211Z,17.30
2023-04-10T02:32:35.413Z,17.93
2023-04-10T02:35:03.230Z,17.27
2023-04-10T02:37:30.933Z,16.43
2023-04-10T02:39:57.947Z,17.27
2023-04-10T02:42:24.932Z,17.17
2023-04-10T02:44:51.877Z,17.07
2023-04-10T02:47:19.081Z,17.77
2023-04-10T02:49:46.180Z,17.63
2023-04-10T02:52:13.171Z,17.40
2023-04-10T02:54:40.831Z,17.57
2023-04-10T02:57:08.093Z,18.60
2023-04-10T02:59:35.066Z,18.27
2023-04-10T03:02:02.228Z,19.47
2023-04-10T03:04:32.515Z,17.53
2023-04-10T03:06:59.658Z,17.13
2023-04-10T03:09:26.704Z,19.20
2023-04-10T03:11:53.795Z,18.10
2023-04-10T03:14:21.116Z,15.83
2023-04-10T03:16:48.164Z,15.67
2023-04-10T03:19:15.144Z,15.30
2023-04-10T03:21:42.362Z,18.33
2023-04-10T03:24:09.443Z,17.13
2023-04-10T03:26:36.432Z,17.63
2023-04-10T03:29:03.844Z,17.23
2023-04-10T03:31:31.931Z,16.57
2023-04-10T03:33:59.092Z,17.80
2023-04-10T03:36:27.000Z,18.93
2023-04-10T03:38:53.988Z,18.87
2023-04-10T03:41:23.167Z,18.63
2023-04-10T03:43:51.215Z,18.43
2023-04-10T03:46:18.360Z,19.07
2023-04-10T03:48:45.384Z,18.53
2023-04-10T03:51:12.701Z,18.77
2023-04-10T03:53:39.678Z,19.10
2023-04-10T03:56:07.484Z,18.13
2023-04-10T03:58:34.463Z,18.63
2023-04-10T04:01:01.733Z,18.00
2023-04-10T04:03:28.862Z,18.80
2023-04-10T04:05:56.389Z,17.80
2023-04-10T04:08:23.326Z,17.47
2023-04-10T04:10:50.344Z,17.13
2023-04-10T04:13:17.439Z,16.20
2023-04-10T04:15:44.484Z,16.47
2023-04-10T04:18:11.434Z,16.90
2023-04-10T04:20:38.477Z,17.90
2023-04-10T04:23:05.464Z,17.57
2023-04-10T04:25:32.481Z,17.07
2023-04-10T04:27:59.537Z,17.47
2023-04-10T04:30:26.655Z,16.80
2023-04-10T04:32:53.678Z,18.80
2023-04-10T04:35:20.995Z,16.87
2023-04-10T04:37:48.016Z,18.03
2023-04-10T04:40:15.163Z,17.13
2023-04-10T04:42:42.169Z,18.83
2023-04-10T04:45:09.997Z,15.57
2023-04-10T04:47:37.227Z,16.93
2023-04-10T04:50:04.538Z,17.53
2023-04-10T04:52:32.296Z,15.70
2023-04-10T04:54:59.424Z,16.67
2023-04-10T04:57:26.349Z,15.20
2023-04-10T04:59:53.616Z,16.23
2023-04-10T05:02:22.914Z,14.83
2023-04-10T05:04:50.225Z,14.23
2023-04-10T05:07:17.213Z,15.57
2023-04-10T05:09:44.236Z,15.13
2023-04-10T05:12:11.580Z,16.23
2023-04-10T05:14:38.646Z,15.63
2023-04-10T05:17:06.133Z,15.57
2023-04-10T05:19:33.184Z,14.63
2023-04-10T05:22:00.352Z,14.60
2023-04-10T05:24:27.485Z,14.70
2023-04-10T05:26:54.495Z,15.10
2023-04-10T05:29:21.710Z,15.80
2023-04-10T05:31:49.385Z,14.13
2023-04-10T05:34:17.619Z,15.97
2023-04-10T05:36:44.579Z,15.93
2023-04-10T05:39:11.792Z,16.57
2023-04-10T05:41:38.782Z,16.17
2023-04-10T05:44:05.713Z,18.33
2023-04-10T05:46:32.812Z,17.40
2023-04-10T05:49:00.503Z,16.57
2023-04-10T05:51:27.487Z,14.77
2023-04-10T05:53:54.476Z,14.37
2023-04-10T05:56:21.542Z,13.77
2023-04-10T05:58:48.635Z,14.73
2023-04-10T06:01:15.665Z,13.83
2023-04-10T06:03:42.930Z,13.52
2023-04-10T06:06:10.033Z,13.65
2023-04-10T06:08:36.961Z,13.07
2023-04-10T06:11:04.194Z,14.27
2023-04-10T06:13:32.565Z,12.70
2023-04-10T06:15:59.637Z,12.93
2023-04-10T06:18:26.765Z,14.05
2023-04-10T06:20:54.057Z,13.35
2023-04-10T06:23:21.273Z,12.63
2023-04-10T06:25:48.256Z,13.05
2023-04-10T06:28:15.568Z,12.75
2023-04-10T06:30:42.509Z,12.55
2023-04-10T06:33:09.423Z,11.93
2023-04-10T06:35:36.682Z,11.90
2023-04-10T06:38:04.197Z,11.10
2023-04-10T06:40:31.849Z,12.35
2023-04-10T06:42:58.762Z,11.93
2023-04-10T06:45:25.812Z,11.45
2023-04-10T06:47:53.149Z,9.30
2023-04-10T06:50:20.200Z,10.15
2023-04-10T06:52:48.526Z,10.35
2023-04-10T06:55:15.675Z,9.07
2023-04-10T06:57:42.670Z,10.13
2023-04-10T07:00:10.277Z,10.57
2023-04-10T07:02:37.221Z,9.07
2023-04-10T07:05:04.447Z,10.23
2023-04-10T07:07:31.612Z,10.05
2023-04-10T07:09:58.759Z,8.70
2023-04-10T07:12:26.683Z,9.07
2023-04-10T07:14:53.697Z,9.40
2023-04-10T07:17:21.207Z,10.07
2023-04-10T07:19:48.305Z,10.50
2023-04-10T07:22:15.986Z,10.32
2023-04-10T07:24:43.000Z,10.23
2023-04-10T07:27:10.271Z,9.20
2023-04-10T07:29:37.191Z,9.95
2023-04-10T07:32:04.603Z,10.27
2023-04-10T07:34:32.533Z,9.48
2023-04-10T07:36:59.539Z,10.07
2023-04-10T07:39:26.764Z,9.93
2023-04-10T07:41:54.812Z,9.65
2023-04-10T07:44:21.935Z,10.27
2023-04-10T07:46:48.870Z,9.80
2023-04-10T07:49:15.775Z,9.40
2023-04-10T07:51:42.802Z,10.38
2023-04-10T07:54:09.757Z,12.60
2023-04-10T07:56:36.735Z,10.88
2023-04-10T07:59:04.219Z,9.80
2023-04-10T08:01:31.198Z,9.45
2023-04-10T08:03:58.329Z,9.77
2023-04-10T08:06:26.080Z,9.80
2023-04-10T08:08:53.269Z,9.88
2023-04-10T08:11:24.933Z,11.57
2023-04-10T08:13:53.381Z,10.60
2023-04-10T08:16:27.462Z,10.25
2023-04-10T08:18:56.861Z,9.98
2023-04-10T08:21:26.216Z,10.02
2023-04-10T08:23:54.640Z,10.60
2023-04-10T08:26:22.088Z,10.45
2023-04-10T08:28:51.045Z,9.70
2023-04-10T08:31:19.205Z,9.00
2023-04-10T08:33:46.578Z,9.90
2023-04-10T08:36:18.257Z,10.57
2023-04-10T08:38:47.824Z,10.23
2023-04-10T08:41:16.440Z,9.27
2023-04-10T08:43:45.800Z,9.48
2023-04-10T08:46:14.461Z,9.20
2023-04-10T08:48:50.156Z,9.32
2023-04-10T08:51:26.253Z,8.70
2023-04-10T08:53:58.396Z,8.10
2023-04-10T08:56:26.233Z,9.63
2023-04-10T08:58:53.775Z,8.70
2023-04-10T09:01:21.930Z,8.15
2023-04-10T09:03:49.260Z,7.78
2023-04-10T09:06:16.344Z,8.23
2023-04-10T09:08:43.336Z,7.88
2023-04-10T09:11:13.354Z,7.15
2023-04-10T09:13:41.664Z,7.65
2023-04-10T09:16:10.061Z,6.82
2023-04-10T09:18:45.187Z,6.60
2023-04-10T09:21:20.164Z,6.25
2023-04-10T09:23:48.726Z,6.63
2023-04-10T09:26:25.464Z,7.22
2023-04-10T09:28:58.285Z,7.18
2023-04-10T09:31:32.255Z,6.55
2023-04-10T09:34:11.393Z,7.00
2023-04-10T09:36:38.899Z,6.65
2023-04-10T09:39:06.400Z,7.25
2023-04-10T09:41:33.592Z,7.15
2023-04-10T09:44:11.944Z,6.68
2023-04-10T09:46:39.051Z,6.45
2023-04-10T09:49:07.491Z,7.15
2023-04-10T09:51:35.907Z,6.90
2023-04-10T09:54:03.890Z,6.70
2023-04-10T09:56:31.407Z,7.13
2023-04-10T09:59:01.457Z,6.78
2023-04-10T10:01:30.048Z,6.57
2023-04-10T10:04:03.949Z,5.88
2023-04-10T10:06:32.615Z,5.55
2023-04-10T10:09:04.728Z,6.32
2023-04-10T10:11:35.524Z,6.95
2023-04-10T10:14:13.257Z,7.00
2023-04-10T10:16:46.995Z,6.80
2023-04-10T10:19:31.140Z,6.72
2023-04-10T10:22:01.431Z,5.95
2023-04-10T10:24:29.689Z,6.05
2023-04-10T10:26:58.482Z,6.65
2023-04-10T10:29:26.111Z,6.70
2023-04-10T10:31:54.174Z,8.18
2023-04-10T10:34:21.926Z,7.03
2023-04-10T10:36:49.017Z,20.88
2023-04-10T10:39:40.790Z,4.97
2023-04-10T10:42:49.058Z,5.60
2023-04-10T10:45:30.023Z,5.05
2023-04-10T10:47:57.261Z,5.32
2023-04-10T10:50:24.931Z,4.78
2023-04-10T10:52:54.183Z,4.70
2023-04-10T10:55:34.841Z,5.15
2023-04-10T10:58:06.785Z,4.95
2023-04-10T11:00:52.067Z,4.32
2023-04-10T11:03:19.223Z,5.13
2023-04-10T11:06:02.474Z,4.60
2023-04-10T11:08:36.462Z,5.65
2023-04-10T11:11:13.132Z,5.15
2023-04-10T11:13:42.399Z,5.25
2023-04-10T11:16:13.114Z,6.25
2023-04-10T11:18:47.187Z,5.60
2023-04-10T11:21:22.798Z,5.13
2023-04-10T11:23:52.955Z,5.43
2023-04-10T11:26:44.560Z,5.75
2023-04-10T11:29:20.383Z,5.10
2023-04-10T11:31:58.336Z,5.32
2023-04-10T11:34:27.607Z,6.43
2023-04-10T11:36:54.986Z,5.60
2023-04-10T11:39:22.305Z,4.95
2023-04-10T11:41:54.063Z,5.75
2023-04-10T11:44:37.072Z,5.38
2023-04-10T11:47:04.622Z,5.40
2023-04-10T11:49:34.805Z,4.68
2023-04-10T11:52:01.927Z,5.07
2023-04-10T11:54:29.858Z,5.47
2023-04-10T11:57:05.231Z,5.85
2023-04-10T11:59:34.517Z,6.15
2023-04-10T12:02:09.444Z,6.07
2023-04-10T12:04:37.182Z,6.00
2023-04-10T12:07:04.415Z,5.05
2023-04-10T12:09:31.870Z,5.38
2023-04-10T12:12:04.757Z,6.35
2023-04-10T12:14:35.074Z,6.28
2023-04-10T12:17:03.730Z,5.55
2023-04-10T12:19:31.234Z,4.43
2023-04-10T12:22:00.370Z,4.47
2023-04-10T12:24:50.914Z,5.22
2023-04-10T12:27:22.667Z,5.65
2023-04-10T12:29:51.749Z,4.88
2023-04-10T12:32:19.506Z,5.25
2023-04-10T12:34:54.230Z,4.88
2023-04-10T12:37:21.311Z,4.53
2023-04-10T12:39:48.505Z,4.40
2023-04-10T12:42:23.167Z,4.07
2023-04-10T12:44:54.965Z,4.30
2023-04-10T12:47:23.407Z,4.13
2023-04-10T12:50:13.316Z,4.15
2023-04-10T12:52:46.080Z,4.50
2023-04-10T12:55:21.563Z,3.90
2023-04-10T12:57:51.796Z,3.92
2023-04-10T13:00:20.026Z,4.60
2023-04-10T13:02:48.209Z,4.63
2023-04-10T13:05:18.156Z,3.80
2023-04-10T13:07:45.132Z,4.32
2023-04-10T13:10:12.400Z,4.35
2023-04-10T13:12:40.746Z,4.40
2023-04-10T13:15:08.272Z,4.55
2023-04-10T13:17:35.922Z,4.28
2023-04-10T13:20:03.169Z,4.20
2023-04-10T13:22:30.104Z,3.38
2023-04-10T13:24:57.041Z,3.38
2023-04-10T13:27:24.063Z,3.13
2023-04-10T13:29:51.114Z,3.20
2023-04-10T13:32:18.113Z,3.30
2023-04-10T13:34:45.099Z,3.63
2023-04-10T13:37:13.519Z,4.03
2023-04-10T13:39:40.534Z,3.42
2023-04-10T13:42:07.595Z,3.72
2023-04-10T13:44:34.522Z,3.92
2023-04-10T13:47:01.562Z,3.88
2023-04-10T13:49:31.501Z,3.45
2023-04-10T13:51:58.808Z,3.30
2023-04-10T13:54:26.752Z,3.65
2023-04-10T13:56:54.847Z,4.32
2023-04-10T13:59:22.240Z,3.28
2023-04-10T14:01:52.199Z,3.40
2023-04-10T14:04:19.838Z,4.00
2023-04-10T14:06:46.951Z,3.97
2023-04-10T14:09:14.037Z,4.53
2023-04-10T14:11:41.048Z,4.10
2023-04-10T14:14:08.058Z,3.75
2023-04-10T14:16:35.132Z,3.38
2023-04-10T14:19:02.093Z,3.90
2023-04-10T14:21:29.141Z,3.70
2023-04-10T14:23:56.133Z,3.08
2023-04-10T14:26:23.640Z,3.03
2023-04-10T14:28:50.668Z,3.10
2023-04-10T14:31:17.893Z,3.08
2023-04-10T14:33:44.832Z,3.80
2023-04-10T14:36:11.867Z,3.42
2023-04-10T14:38:39.936Z,3.55
2023-04-10T14:41:07.380Z,2.97
2023-04-10T14:43:43.620Z,3.80
2023-04-10T14:46:11.895Z,6.65
2023-04-10T14:48:39.211Z,3.30
2023-04-10T14:51:12.840Z,4.50
2023-04-10T14:53:40.492Z,3.65
2023-04-10T14:56:12.501Z,4.03
2023-04-10T14:58:39.702Z,3.70
2023-04-10T15:01:11.842Z,5.68
2023-04-10T15:03:40.007Z,4.32
2023-04-10T15:06:07.934Z,4.75
2023-04-10T15:08:35.092Z,5.30
2023-04-10T15:11:02.381Z,16.65
2023-04-10T15:13:29.408Z,18.20
2023-04-10T15:15:56.956Z,10.95
2023-04-10T15:18:25.777Z,38.78
2023-04-10T15:20:52.782Z,235.82
2023-04-10T15:23:19.805Z,204.40
2023-04-10T15:25:46.965Z,19.80
2023-04-10T15:28:15.414Z,15.60
2023-04-10T15:30:45.827Z,7.60
2023-04-10T15:33:15.432Z,33.13
2023-04-10T15:35:47.820Z,6.20
2023-04-10T15:38:15.082Z,4.38
2023-04-10T15:40:42.091Z,4.70
2023-04-10T15:43:09.198Z,3.63
2023-04-10T15:45:37.546Z,3.67
2023-04-10T15:48:05.415Z,3.60
2023-04-10T15:50:33.008Z,4.03
2023-04-10T15:53:00.093Z,5.38
2023-04-10T15:55:27.092Z,3.78
2023-04-10T15:57:54.222Z,7.53
2023-04-10T16:00:21.530Z,4.45
2023-04-10T16:02:49.998Z,4.13
2023-04-10T16:05:17.206Z,3.90
2023-04-10T16:07:44.303Z,49.38
2023-04-10T16:10:11.669Z,13.20
2023-04-10T16:12:38.913Z,12.23
2023-04-10T16:15:08.344Z,5.00
2023-04-10T16:17:35.619Z,4.47
2023-04-10T16:20:08.860Z,5.00
2023-04-10T16:22:36.734Z,4.32
2023-04-10T16:27:35.792Z,3.50
2023-04-10T16:30:02.856Z,4.00
2023-04-10T16:32:31.629Z,3.85
2023-04-10T16:34:59.107Z,3.58
2023-04-10T16:37:26.381Z,3.85
2023-04-10T16:39:53.584Z,3.92
2023-04-10T16:42:20.498Z,3.55
2023-04-10T16:44:47.556Z,4.05
2023-04-10T16:47:14.581Z,3.65
2023-04-10T16:49:45.729Z,3.83
2023-04-10T16:52:13.277Z,3.58
2023-04-10T16:54:40.727Z,3.95
2023-04-10T16:57:07.890Z,4.05
2023-04-10T16:59:35.884Z,3.90
2023-04-10T17:02:03.007Z,3.60
2023-04-10T17:04:30.506Z,5.18
2023-04-10T17:06:57.606Z,4.20
2023-04-10T17:09:27.821Z,5.82
2023-04-10T17:11:54.857Z,4.85
2023-04-10T17:14:22.022Z,5.80
2023-04-10T17:16:55.067Z,5.30
2023-04-10T17:19:22.068Z,4.63
2023-04-10T17:21:52.598Z,3.65
2023-04-10T17:24:22.403Z,4.65
2023-04-10T17:26:51.360Z,6.50
2023-04-10T17:29:24.265Z,4.65
2023-04-10T17:38:04.769Z,4.45
2023-04-10T17:40:49.538Z,4.32
2023-04-10T17:44:08.293Z,5.22
2023-04-10T17:47:04.965Z,4.60
2023-04-10T17:49:59.863Z,4.65
2023-04-10T17:52:54.942Z,4.50
2023-04-10T17:56:06.231Z,5.07
2023-04-10T17:58:52.051Z,4.63
2023-04-10T18:01:32.123Z,4.63
2023-04-10T18:04:21.647Z,4.53
2023-04-10T19:08:00.804Z,4.93
2023-04-10T19:10:30.609Z,6.05
2023-04-10T19:13:01.121Z,4.82
2023-04-10T19:15:28.326Z,4.95
2023-04-10T19:17:55.474Z,5.22
2023-04-10T19:20:50.840Z,5.82
2023-04-10T19:23:11.947Z,5.15
2023-04-10T19:25:39.017Z,6.28
2023-04-10T19:28:07.028Z,4.78
2023-04-10T19:30:34.201Z,5.00
2023-04-10T19:33:01.318Z,4.90
2023-04-10T19:35:28.595Z,5.63
2023-04-10T19:37:58.704Z,4.75
2023-04-10T19:40:26.209Z,5.45
2023-04-10T19:42:53.553Z,4.88
2023-04-10T19:45:22.368Z,5.15
2023-04-10T19:47:51.420Z,5.53
2023-04-10T19:50:18.625Z,4.28
2023-04-10T19:52:46.220Z,5.00
2023-04-10T19:55:13.552Z,4.63
2023-04-10T19:57:40.888Z,5.28
2023-04-10T20:00:10.076Z,5.03
2023-04-10T20:02:37.931Z,4.90
2023-04-10T20:05:06.112Z,5.63
2023-04-10T20:07:34.140Z,4.50
2023-04-10T20:10:04.276Z,5.07
2023-04-10T20:12:35.406Z,4.80
2023-04-10T20:15:04.042Z,5.00
2023-04-10T20:17:31.435Z,4.85
2023-04-10T20:19:58.589Z,5.05
2023-04-10T20:22:25.875Z,5.18
2023-04-10T20:24:53.324Z,4.75
2023-04-10T20:27:20.567Z,4.57
2023-04-10T20:29:50.981Z,5.25
2023-04-10T20:32:18.649Z,4.50
2023-04-10T20:34:45.898Z,4.50
2023-04-10T20:37:22.047Z,4.47
2023-04-10T20:39:49.714Z,4.00
2023-04-10T20:42:31.581Z,4.20
2023-04-10T20:44:58.759Z,4.40
2023-04-10T20:47:25.849Z,4.72
2023-04-10T20:49:53.154Z,4.00
2023-04-10T20:52:20.204Z,4.63
2023-04-10T20:54:47.325Z,4.38
2023-04-10T20:57:15.103Z,4.60
2023-04-10T20:59:42.264Z,4.53
2023-04-10T21:02:09.810Z,4.32
2023-04-10T21:04:37.083Z,4.35
2023-04-10T21:07:04.147Z,4.18
2023-04-10T21:09:31.319Z,4.22
2023-04-10T21:11:58.885Z,4.90
2023-04-10T21:14:26.060Z,3.97
2023-04-10T21:16:53.378Z,4.07
2023-04-10T21:19:20.463Z,3.85
2023-04-10T21:21:47.856Z,3.88
2023-04-10T21:24:15.560Z,3.22
2023-04-10T21:26:42.790Z,4.38
2023-04-10T21:29:09.879Z,3.72
2023-04-10T21:31:36.829Z,4.45
2023-04-10T21:34:22.675Z,3.80
2023-04-10T21:36:49.677Z,4.45
2023-04-10T21:39:16.701Z,3.78
2023-04-10T21:41:44.394Z,3.70
2023-04-10T21:44:11.395Z,3.70
2023-04-10T21:46:38.409Z,4.75
2023-04-10T21:49:05.731Z,4.35
2023-04-10T21:51:33.028Z,4.43
2023-04-10T21:54:00.011Z,5.03
2023-04-10T21:56:27.077Z,4.93
2023-04-10T21:58:54.672Z,4.60
2023-04-10T22:01:22.273Z,4.80
2023-04-10T22:03:49.474Z,4.20
2023-04-10T22:06:16.532Z,4.15
2023-04-10T22:08:43.752Z,4.30
2023-04-10T22:11:10.674Z,4.88
2023-04-10T22:13:37.721Z,3.95
2023-04-10T22:16:06.315Z,4.57
2023-04-10T22:18:33.409Z,5.10
2023-04-10T22:21:00.501Z,5.05
2023-04-10T22:23:27.761Z,4.20
2023-04-10T22:25:54.760Z,5.30
2023-04-10T22:28:21.734Z,5.25
2023-04-10T22:30:48.688Z,4.57
2023-04-10T22:33:17.466Z,5.38
2023-04-10T22:35:45.411Z,3.88
2023-04-10T22:38:12.410Z,5.25
2023-04-10T22:40:39.412Z,4.72
2023-04-10T22:43:06.627Z,4.28
2023-04-10T22:45:33.611Z,4.95
2023-04-10T22:48:00.866Z,3.95
2023-04-10T22:50:27.887Z,5.20
2023-04-10T22:52:54.934Z,4.28
2023-04-10T22:55:22.034Z,4.45
2023-04-10T22:57:51.585Z,4.15
2023-04-10T23:00:18.896Z,4.65
2023-04-10T23:02:46.172Z,5.03
2023-04-10T23:05:13.209Z,4.05
2023-04-10T23:07:46.597Z,4.78
2023-04-10T23:10:13.876Z,4.95
2023-04-10T23:12:40.866Z,5.07
2023-04-10T23:15:09.122Z,4.72
2023-04-10T23:17:36.544Z,4.90
2023-04-10T23:20:03.663Z,4.97
2023-04-10T23:22:31.222Z,4.55
2023-04-10T23:24:58.464Z,4.10
2023-04-10T23:27:25.423Z,4.35
2023-04-10T23:29:52.436Z,4.15
2023-04-10T23:32:19.478Z,4.53
2023-04-10T23:34:54.628Z,4.95
2023-04-10T23:37:21.667Z,4.28
2023-04-10T23:39:49.077Z,4.85
2023-04-10T23:42:16.012Z,4.43
2023-04-10T23:44:43.065Z,4.60
2023-04-10T23:47:10.075Z,4.25
2023-04-10T23:49:37.147Z,4.68
2023-04-10T23:52:04.224Z,4.95
2023-04-10T23:54:31.310Z,4.45
2023-04-10T23:56:58.318Z,4.25
2023-04-10T23:59:25.351Z,4.40
